sensor_id;sensor_type;location;lat;lon;timestamp;P1;durP1;ratioP1;P2;durP2;ratioP2
25667;SDS011;18003;-33.830;151.202;2024-02-23T00:00:53;3.22;;;2.92;;
25667;SDS011;18003;-33.830;151.202;2024-02-23T00:03:41;2.80;;;2.60;;
25667;SDS011;18003;-33.830;151.202;2024-02-23T00:06:01;3.17;;;2.98;;
25667;SDS011;18003;-33.830;151.202;2024-02-23T00:08:33;3.67;;;3.37;;
25667;SDS011;18003;-33.830;151.202;2024-02-23T00:11:09;3.30;;;3.00;;
25667;SDS011;18003;-33.830;151.202;2024-02-23T00:13:40;2.77;;;2.47;;
25667;SDS011;18003;-33.830;151.202;2024-02-23T00:16:15;2.62;;;2.42;;
25667;SDS011;18003;-33.830;151.202;2024-02-23T00:18:49;3.25;;;3.00;;
25667;SDS011;18003;-33.830;151.202;2024-02-23T00:21:20;3.08;;;2.87;;
25667;SDS011;18003;-33.830;151.202;2024-02-23T00:23:55;2.75;;;2.55;;
25667;SDS011;18003;-33.830;151.202;2024-02-23T00:26:33;2.50;;;2.30;;
25667;SDS011;18003;-33.830;151.202;2024-02-23T00:29:07;2.50;;;2.30;;
25667;SDS011;18003;-33.830;151.202;2024-02-23T00:31:37;3.10;;;2.80;;
25667;SDS011;18003;-33.830;151.202;2024-02-23T00:34:15;2.90;;;2.70;;
25667;SDS011;18003;-33.830;151.202;2024-02-23T00:36:47;2.65;;;2.42;;
25667;SDS011;18003;-33.830;151.202;2024-02-23T00:39:27;2.50;;;2.30;;
25667;SDS011;18003;-33.830;151.202;2024-02-23T00:41:58;2.55;;;2.35;;
25667;SDS011;18003;-33.830;151.202;2024-02-23T00:44:39;2.80;;;2.50;;
25667;SDS011;18003;-33.830;151.202;2024-02-23T00:47:07;2.35;;;2.20;;
25667;SDS011;18003;-33.830;151.202;2024-02-23T00:49:41;2.30;;;1.87;;
25667;SDS011;18003;-33.830;151.202;2024-02-23T00:52:19;2.33;;;2.15;;
25667;SDS011;18003;-33.830;151.202;2024-02-23T00:54:57;2.60;;;2.40;;
25667;SDS011;18003;-33.830;151.202;2024-02-23T00:57:40;2.80;;;2.58;;
25667;SDS011;18003;-33.830;151.202;2024-02-23T01:02:49;2.35;;;2.20;;
25667;SDS011;18003;-33.830;151.202;2024-02-23T01:05:24;2.30;;;2.10;;
25667;SDS011;18003;-33.830;151.202;2024-02-23T01:07:59;2.75;;;2.55;;
25667;SDS011;18003;-33.830;151.202;2024-02-23T01:10:35;2.92;;;2.60;;
25667;SDS011;18003;-33.830;151.202;2024-02-23T01:13:21;2.20;;;2.00;;
25667;SDS011;18003;-33.830;151.202;2024-02-23T01:15:46;2.47;;;1.92;;
25667;SDS011;18003;-33.830;151.202;2024-02-23T01:18:23;1.75;;;1.65;;
25667;SDS011;18003;-33.830;151.202;2024-02-23T01:20:51;3.45;;;2.65;;
25667;SDS011;18003;-33.830;151.202;2024-02-23T01:23:39;2.03;;;1.93;;
25667;SDS011;18003;-33.830;151.202;2024-02-23T01:26:01;1.77;;;1.67;;
25667;SDS011;18003;-33.830;151.202;2024-02-23T01:28:43;2.08;;;1.98;;
25667;SDS011;18003;-33.830;151.202;2024-02-23T01:34:00;3.13;;;2.90;;
25667;SDS011;18003;-33.830;151.202;2024-02-23T01:36:31;2.70;;;2.50;;
25667;SDS011;18003;-33.830;151.202;2024-02-23T01:39:03;4.37;;;2.65;;
25667;SDS011;18003;-33.830;151.202;2024-02-23T01:41:45;2.33;;;2.22;;
25667;SDS011;18003;-33.830;151.202;2024-02-23T01:44:16;4.55;;;4.15;;
25667;SDS011;18003;-33.830;151.202;2024-02-23T01:46:49;5.05;;;4.65;;
25667;SDS011;18003;-33.830;151.202;2024-02-23T01:49:22;3.20;;;2.98;;
25667;SDS011;18003;-33.830;151.202;2024-02-23T01:51:56;3.83;;;3.17;;
25667;SDS011;18003;-33.830;151.202;2024-02-23T01:57:51;4.92;;;4.50;;
25667;SDS011;18003;-33.830;151.202;2024-02-23T02:00:20;3.55;;;3.25;;
25667;SDS011;18003;-33.830;151.202;2024-02-23T02:05:49;3.20;;;2.90;;
25667;SDS011;18003;-33.830;151.202;2024-02-23T02:11:04;4.45;;;4.05;;
25667;SDS011;18003;-33.830;151.202;2024-02-23T02:21:34;4.87;;;4.47;;
25667;SDS011;18003;-33.830;151.202;2024-02-23T02:24:22;4.60;;;4.20;;
25667;SDS011;18003;-33.830;151.202;2024-02-23T02:26:51;2.90;;;2.70;;
25667;SDS011;18003;-33.830;151.202;2024-02-23T02:29:20;2.20;;;2.00;;
25667;SDS011;18003;-33.830;151.202;2024-02-23T02:31:48;2.10;;;1.90;;
25667;SDS011;18003;-33.830;151.202;2024-02-23T02:34:18;3.62;;;3.25;;
25667;SDS011;18003;-33.830;151.202;2024-02-23T02:36:46;2.77;;;2.58;;
25667;SDS011;18003;-33.830;151.202;2024-02-23T02:39:15;1.75;;;1.65;;
25667;SDS011;18003;-33.830;151.202;2024-02-23T02:41:44;2.60;;;1.70;;
25667;SDS011;18003;-33.830;151.202;2024-02-23T02:44:13;2.33;;;2.12;;
25667;SDS011;18003;-33.830;151.202;2024-02-23T02:46:42;3.40;;;3.10;;
25667;SDS011;18003;-33.830;151.202;2024-02-23T02:49:12;2.35;;;2.20;;
25667;SDS011;18003;-33.830;151.202;2024-02-23T02:51:41;2.35;;;1.90;;
25667;SDS011;18003;-33.830;151.202;2024-02-23T02:54:10;1.80;;;1.70;;
25667;SDS011;18003;-33.830;151.202;2024-02-23T02:56:45;2.70;;;2.50;;
25667;SDS011;18003;-33.830;151.202;2024-02-23T02:59:14;3.05;;;2.80;;
25667;SDS011;18003;-33.830;151.202;2024-02-23T03:01:42;1.80;;;1.70;;
25667;SDS011;18003;-33.830;151.202;2024-02-23T03:04:11;1.90;;;1.80;;
25667;SDS011;18003;-33.830;151.202;2024-02-23T03:06:40;1.60;;;1.50;;
25667;SDS011;18003;-33.830;151.202;2024-02-23T03:09:09;2.02;;;1.90;;
25667;SDS011;18003;-33.830;151.202;2024-02-23T03:11:38;3.00;;;2.80;;
25667;SDS011;18003;-33.830;151.202;2024-02-23T03:14:07;1.60;;;1.42;;
25667;SDS011;18003;-33.830;151.202;2024-02-23T03:16:37;1.60;;;1.50;;
25667;SDS011;18003;-33.830;151.202;2024-02-23T03:19:06;1.52;;;1.42;;
25667;SDS011;18003;-33.830;151.202;2024-02-23T03:21:35;2.37;;;2.17;;
25667;SDS011;18003;-33.830;151.202;2024-02-23T03:24:04;2.75;;;2.42;;
25667;SDS011;18003;-33.830;151.202;2024-02-23T03:26:33;1.75;;;1.65;;
25667;SDS011;18003;-33.830;151.202;2024-02-23T03:29:02;1.45;;;1.32;;
25667;SDS011;18003;-33.830;151.202;2024-02-23T03:31:31;1.42;;;1.32;;
25667;SDS011;18003;-33.830;151.202;2024-02-23T03:34:00;2.17;;;1.98;;
25667;SDS011;18003;-33.830;151.202;2024-02-23T03:36:29;1.80;;;1.70;;
25667;SDS011;18003;-33.830;151.202;2024-02-23T03:38:58;1.62;;;1.37;;
25667;SDS011;18003;-33.830;151.202;2024-02-23T03:41:27;1.40;;;1.27;;
25667;SDS011;18003;-33.830;151.202;2024-02-23T03:43:56;1.50;;;1.40;;
25667;SDS011;18003;-33.830;151.202;2024-02-23T03:46:26;1.50;;;1.40;;
25667;SDS011;18003;-33.830;151.202;2024-02-23T03:48:54;1.77;;;1.67;;
25667;SDS011;18003;-33.830;151.202;2024-02-23T03:51:24;1.25;;;1.15;;
25667;SDS011;18003;-33.830;151.202;2024-02-23T03:53:52;1.40;;;1.27;;
25667;SDS011;18003;-33.830;151.202;2024-02-23T03:56:21;1.30;;;1.20;;
25667;SDS011;18003;-33.830;151.202;2024-02-23T03:58:50;1.70;;;1.60;;
25667;SDS011;18003;-33.830;151.202;2024-02-23T04:01:19;1.60;;;1.50;;
25667;SDS011;18003;-33.830;151.202;2024-02-23T04:03:48;1.60;;;1.50;;
25667;SDS011;18003;-33.830;151.202;2024-02-23T04:06:18;1.45;;;1.35;;
25667;SDS011;18003;-33.830;151.202;2024-02-23T04:08:46;1.50;;;1.40;;
25667;SDS011;18003;-33.830;151.202;2024-02-23T04:11:15;1.82;;;1.65;;
25667;SDS011;18003;-33.830;151.202;2024-02-23T04:13:44;1.70;;;1.60;;
25667;SDS011;18003;-33.830;151.202;2024-02-23T04:16:14;1.37;;;1.30;;
25667;SDS011;18003;-33.830;151.202;2024-02-23T04:18:43;1.40;;;1.30;;
25667;SDS011;18003;-33.830;151.202;2024-02-23T04:21:12;1.20;;;1.20;;
25667;SDS011;18003;-33.830;151.202;2024-02-23T04:23:43;1.87;;;1.70;;
25667;SDS011;18003;-33.830;151.202;2024-02-23T04:26:12;1.50;;;1.40;;
25667;SDS011;18003;-33.830;151.202;2024-02-23T04:28:41;1.10;;;1.10;;
25667;SDS011;18003;-33.830;151.202;2024-02-23T04:31:10;1.32;;;1.20;;
25667;SDS011;18003;-33.830;151.202;2024-02-23T04:33:39;1.37;;;1.27;;
25667;SDS011;18003;-33.830;151.202;2024-02-23T04:36:08;1.60;;;1.50;;
25667;SDS011;18003;-33.830;151.202;2024-02-23T04:38:37;1.32;;;1.22;;
25667;SDS011;18003;-33.830;151.202;2024-02-23T04:41:06;1.10;;;1.10;;
25667;SDS011;18003;-33.830;151.202;2024-02-23T04:43:35;1.60;;;1.10;;
25667;SDS011;18003;-33.830;151.202;2024-02-23T04:46:04;1.10;;;1.10;;
25667;SDS011;18003;-33.830;151.202;2024-02-23T04:48:33;1.72;;;1.62;;
25667;SDS011;18003;-33.830;151.202;2024-02-23T04:51:03;1.10;;;1.10;;
25667;SDS011;18003;-33.830;151.202;2024-02-23T04:53:35;1.20;;;1.10;;
25667;SDS011;18003;-33.830;151.202;2024-02-23T04:56:03;1.25;;;1.15;;
25667;SDS011;18003;-33.830;151.202;2024-02-23T04:58:32;1.30;;;1.20;;
25667;SDS011;18003;-33.830;151.202;2024-02-23T05:01:01;1.52;;;1.42;;
25667;SDS011;18003;-33.830;151.202;2024-02-23T05:03:30;1.25;;;1.15;;
25667;SDS011;18003;-33.830;151.202;2024-02-23T05:05:59;1.10;;;1.00;;
25667;SDS011;18003;-33.830;151.202;2024-02-23T05:08:28;1.00;;;1.00;;
25667;SDS011;18003;-33.830;151.202;2024-02-23T05:10:57;0.98;;;0.98;;
25667;SDS011;18003;-33.830;151.202;2024-02-23T05:13:26;1.10;;;1.10;;
25667;SDS011;18003;-33.830;151.202;2024-02-23T05:15:56;1.10;;;1.10;;
25667;SDS011;18003;-33.830;151.202;2024-02-23T05:18:25;1.00;;;1.00;;
25667;SDS011;18003;-33.830;151.202;2024-02-23T05:20:54;1.17;;;1.00;;
25667;SDS011;18003;-33.830;151.202;2024-02-23T05:23:23;1.40;;;1.30;;
25667;SDS011;18003;-33.830;151.202;2024-02-23T05:25:52;1.10;;;1.10;;
25667;SDS011;18003;-33.830;151.202;2024-02-23T05:28:21;1.40;;;1.10;;
25667;SDS011;18003;-33.830;151.202;2024-02-23T05:30:50;0.80;;;0.80;;
25667;SDS011;18003;-33.830;151.202;2024-02-23T05:33:19;1.05;;;1.00;;
25667;SDS011;18003;-33.830;151.202;2024-02-23T05:35:48;1.00;;;1.00;;
25667;SDS011;18003;-33.830;151.202;2024-02-23T05:38:17;1.32;;;1.22;;
25667;SDS011;18003;-33.830;151.202;2024-02-23T05:40:46;1.60;;;1.10;;
25667;SDS011;18003;-33.830;151.202;2024-02-23T05:43:15;0.80;;;0.80;;
25667;SDS011;18003;-33.830;151.202;2024-02-23T05:45:44;1.00;;;0.90;;
25667;SDS011;18003;-33.830;151.202;2024-02-23T05:48:13;1.35;;;0.98;;
25667;SDS011;18003;-33.830;151.202;2024-02-23T05:50:43;0.90;;;0.90;;
25667;SDS011;18003;-33.830;151.202;2024-02-23T05:53:11;0.98;;;0.90;;
25667;SDS011;18003;-33.830;151.202;2024-02-23T05:55:41;1.22;;;1.10;;
25667;SDS011;18003;-33.830;151.202;2024-02-23T05:58:10;0.93;;;0.93;;
25667;SDS011;18003;-33.830;151.202;2024-02-23T06:00:40;1.20;;;1.00;;
25667;SDS011;18003;-33.830;151.202;2024-02-23T06:03:09;1.32;;;1.00;;
25667;SDS011;18003;-33.830;151.202;2024-02-23T06:05:38;1.00;;;1.00;;
25667;SDS011;18003;-33.830;151.202;2024-02-23T06:08:07;1.30;;;0.93;;
25667;SDS011;18003;-33.830;151.202;2024-02-23T06:10:36;1.20;;;1.10;;
25667;SDS011;18003;-33.830;151.202;2024-02-23T06:13:05;1.40;;;1.30;;
25667;SDS011;18003;-33.830;151.202;2024-02-23T06:15:34;1.55;;;1.27;;
25667;SDS011;18003;-33.830;151.202;2024-02-23T06:18:03;3.15;;;1.30;;
25667;SDS011;18003;-33.830;151.202;2024-02-23T06:20:33;2.08;;;1.40;;
25667;SDS011;18003;-33.830;151.202;2024-02-23T06:23:02;1.85;;;1.40;;
25667;SDS011;18003;-33.830;151.202;2024-02-23T06:25:31;1.65;;;1.30;;
25667;SDS011;18003;-33.830;151.202;2024-02-23T06:28:00;1.92;;;1.32;;
25667;SDS011;18003;-33.830;151.202;2024-02-23T06:30:29;2.25;;;1.40;;
25667;SDS011;18003;-33.830;151.202;2024-02-23T06:32:58;2.75;;;1.50;;
25667;SDS011;18003;-33.830;151.202;2024-02-23T06:35:27;1.90;;;1.37;;
25667;SDS011;18003;-33.830;151.202;2024-02-23T06:37:56;1.60;;;1.50;;
25667;SDS011;18003;-33.830;151.202;2024-02-23T06:40:25;2.33;;;1.37;;
25667;SDS011;18003;-33.830;151.202;2024-02-23T06:42:54;2.37;;;1.40;;
25667;SDS011;18003;-33.830;151.202;2024-02-23T06:45:23;1.72;;;1.20;;
25667;SDS011;18003;-33.830;151.202;2024-02-23T06:47:52;2.12;;;1.30;;
25667;SDS011;18003;-33.830;151.202;2024-02-23T06:50:21;1.60;;;1.15;;
25667;SDS011;18003;-33.830;151.202;2024-02-23T06:52:50;2.22;;;1.50;;
25667;SDS011;18003;-33.830;151.202;2024-02-23T06:55:19;2.50;;;1.20;;
25667;SDS011;18003;-33.830;151.202;2024-02-23T06:57:48;2.22;;;1.42;;
25667;SDS011;18003;-33.830;151.202;2024-02-23T07:00:18;2.65;;;1.50;;
25667;SDS011;18003;-33.830;151.202;2024-02-23T07:02:46;2.83;;;1.30;;
25667;SDS011;18003;-33.830;151.202;2024-02-23T07:05:15;2.87;;;1.32;;
25667;SDS011;18003;-33.830;151.202;2024-02-23T07:07:45;1.87;;;1.40;;
25667;SDS011;18003;-33.830;151.202;2024-02-23T07:10:14;3.20;;;1.60;;
25667;SDS011;18003;-33.830;151.202;2024-02-23T07:12:44;2.90;;;1.47;;
25667;SDS011;18003;-33.830;151.202;2024-02-23T07:15:13;1.47;;;1.17;;
25667;SDS011;18003;-33.830;151.202;2024-02-23T07:17:42;2.55;;;1.30;;
25667;SDS011;18003;-33.830;151.202;2024-02-23T07:20:12;3.08;;;1.45;;
25667;SDS011;18003;-33.830;151.202;2024-02-23T07:22:45;2.98;;;1.65;;
25667;SDS011;18003;-33.830;151.202;2024-02-23T07:25:21;2.00;;;1.30;;
25667;SDS011;18003;-33.830;151.202;2024-02-23T07:27:48;2.50;;;1.30;;
25667;SDS011;18003;-33.830;151.202;2024-02-23T07:30:17;2.30;;;1.47;;
25667;SDS011;18003;-33.830;151.202;2024-02-23T07:32:46;3.30;;;1.47;;
25667;SDS011;18003;-33.830;151.202;2024-02-23T07:35:15;2.25;;;1.47;;
25667;SDS011;18003;-33.830;151.202;2024-02-23T07:37:44;1.98;;;1.22;;
25667;SDS011;18003;-33.830;151.202;2024-02-23T07:40:14;2.33;;;1.40;;
25667;SDS011;18003;-33.830;151.202;2024-02-23T07:42:43;2.72;;;1.17;;
25667;SDS011;18003;-33.830;151.202;2024-02-23T07:45:13;2.55;;;1.50;;
25667;SDS011;18003;-33.830;151.202;2024-02-23T07:47:42;2.70;;;1.55;;
25667;SDS011;18003;-33.830;151.202;2024-02-23T07:50:10;2.52;;;1.60;;
25667;SDS011;18003;-33.830;151.202;2024-02-23T07:52:40;1.77;;;1.30;;
25667;SDS011;18003;-33.830;151.202;2024-02-23T07:55:09;3.60;;;1.60;;
25667;SDS011;18003;-33.830;151.202;2024-02-23T07:57:38;3.77;;;1.87;;
25667;SDS011;18003;-33.830;151.202;2024-02-23T08:00:07;3.27;;;1.50;;
25667;SDS011;18003;-33.830;151.202;2024-02-23T08:02:36;2.50;;;1.42;;
25667;SDS011;18003;-33.830;151.202;2024-02-23T08:05:08;1.82;;;1.25;;
25667;SDS011;18003;-33.830;151.202;2024-02-23T08:07:35;2.12;;;1.30;;
25667;SDS011;18003;-33.830;151.202;2024-02-23T08:10:05;1.47;;;1.10;;
25667;SDS011;18003;-33.830;151.202;2024-02-23T08:12:34;2.92;;;1.55;;
25667;SDS011;18003;-33.830;151.202;2024-02-23T08:15:03;2.75;;;1.20;;
25667;SDS011;18003;-33.830;151.202;2024-02-23T08:17:33;1.77;;;1.20;;
25667;SDS011;18003;-33.830;151.202;2024-02-23T08:20:02;2.83;;;1.40;;
25667;SDS011;18003;-33.830;151.202;2024-02-23T08:22:31;2.40;;;1.60;;
25667;SDS011;18003;-33.830;151.202;2024-02-23T08:25:01;1.60;;;1.22;;
25667;SDS011;18003;-33.830;151.202;2024-02-23T08:27:30;1.45;;;1.10;;
25667;SDS011;18003;-33.830;151.202;2024-02-23T08:29:59;1.47;;;1.22;;
25667;SDS011;18003;-33.830;151.202;2024-02-23T08:32:28;1.77;;;1.40;;
25667;SDS011;18003;-33.830;151.202;2024-02-23T08:34:57;1.40;;;1.10;;
25667;SDS011;18003;-33.830;151.202;2024-02-23T08:37:26;3.08;;;1.27;;
25667;SDS011;18003;-33.830;151.202;2024-02-23T08:39:55;2.92;;;1.20;;
25667;SDS011;18003;-33.830;151.202;2024-02-23T08:42:24;2.50;;;1.15;;
25667;SDS011;18003;-33.830;151.202;2024-02-23T08:44:53;1.27;;;1.10;;
25667;SDS011;18003;-33.830;151.202;2024-02-23T08:47:22;1.52;;;1.27;;
25667;SDS011;18003;-33.830;151.202;2024-02-23T08:49:51;1.75;;;1.30;;
25667;SDS011;18003;-33.830;151.202;2024-02-23T08:52:20;1.52;;;1.12;;
25667;SDS011;18003;-33.830;151.202;2024-02-23T08:54:49;1.62;;;1.20;;
25667;SDS011;18003;-33.830;151.202;2024-02-23T08:57:18;1.47;;;1.10;;
25667;SDS011;18003;-33.830;151.202;2024-02-23T08:59:47;2.05;;;1.30;;
25667;SDS011;18003;-33.830;151.202;2024-02-23T09:02:16;2.05;;;1.42;;
25667;SDS011;18003;-33.830;151.202;2024-02-23T09:04:46;1.22;;;0.93;;
25667;SDS011;18003;-33.830;151.202;2024-02-23T09:07:15;1.77;;;1.27;;
25667;SDS011;18003;-33.830;151.202;2024-02-23T09:09:45;1.75;;;1.10;;
25667;SDS011;18003;-33.830;151.202;2024-02-23T09:12:14;2.67;;;1.30;;
25667;SDS011;18003;-33.830;151.202;2024-02-23T09:14:44;2.10;;;1.40;;
25667;SDS011;18003;-33.830;151.202;2024-02-23T09:17:13;3.00;;;1.20;;
25667;SDS011;18003;-33.830;151.202;2024-02-23T09:19:42;1.50;;;1.30;;
25667;SDS011;18003;-33.830;151.202;2024-02-23T09:22:11;1.72;;;1.37;;
25667;SDS011;18003;-33.830;151.202;2024-02-23T09:24:40;2.87;;;1.65;;
25667;SDS011;18003;-33.830;151.202;2024-02-23T09:27:10;3.47;;;1.40;;
25667;SDS011;18003;-33.830;151.202;2024-02-23T09:29:40;1.20;;;1.10;;
25667;SDS011;18003;-33.830;151.202;2024-02-23T09:34:37;3.00;;;1.45;;
25667;SDS011;18003;-33.830;151.202;2024-02-23T09:37:06;2.25;;;1.40;;
25667;SDS011;18003;-33.830;151.202;2024-02-23T09:39:35;2.37;;;1.40;;
25667;SDS011;18003;-33.830;151.202;2024-02-23T09:42:06;1.60;;;1.10;;
25667;SDS011;18003;-33.830;151.202;2024-02-23T09:44:35;4.50;;;1.62;;
25667;SDS011;18003;-33.830;151.202;2024-02-23T09:47:04;3.37;;;1.50;;
25667;SDS011;18003;-33.830;151.202;2024-02-23T09:49:41;2.25;;;1.50;;
25667;SDS011;18003;-33.830;151.202;2024-02-23T09:52:10;2.58;;;1.40;;
25667;SDS011;18003;-33.830;151.202;2024-02-23T09:54:39;2.65;;;1.52;;
25667;SDS011;18003;-33.830;151.202;2024-02-23T09:57:08;2.20;;;1.45;;
25667;SDS011;18003;-33.830;151.202;2024-02-23T09:59:37;2.02;;;1.45;;
25667;SDS011;18003;-33.830;151.202;2024-02-23T10:02:07;1.37;;;1.20;;
25667;SDS011;18003;-33.830;151.202;2024-02-23T10:04:37;1.55;;;1.20;;
25667;SDS011;18003;-33.830;151.202;2024-02-23T10:07:07;1.65;;;1.10;;
25667;SDS011;18003;-33.830;151.202;2024-02-23T10:09:36;2.25;;;1.30;;
25667;SDS011;18003;-33.830;151.202;2024-02-23T10:12:05;3.02;;;1.60;;
25667;SDS011;18003;-33.830;151.202;2024-02-23T10:14:34;2.12;;;1.42;;
25667;SDS011;18003;-33.830;151.202;2024-02-23T10:17:03;2.08;;;1.30;;
25667;SDS011;18003;-33.830;151.202;2024-02-23T10:19:33;1.75;;;1.10;;
25667;SDS011;18003;-33.830;151.202;2024-02-23T10:22:02;2.33;;;1.37;;
25667;SDS011;18003;-33.830;151.202;2024-02-23T10:24:31;2.20;;;1.30;;
25667;SDS011;18003;-33.830;151.202;2024-02-23T10:27:00;2.27;;;1.20;;
25667;SDS011;18003;-33.830;151.202;2024-02-23T10:29:30;3.12;;;1.40;;
25667;SDS011;18003;-33.830;151.202;2024-02-23T10:31:59;2.77;;;1.40;;
25667;SDS011;18003;-33.830;151.202;2024-02-23T10:36:58;1.92;;;1.32;;
25667;SDS011;18003;-33.830;151.202;2024-02-23T10:39:27;1.32;;;1.12;;
25667;SDS011;18003;-33.830;151.202;2024-02-23T10:41:57;1.95;;;1.25;;
25667;SDS011;18003;-33.830;151.202;2024-02-23T10:44:28;1.17;;;0.98;;
25667;SDS011;18003;-33.830;151.202;2024-02-23T10:46:58;2.52;;;1.20;;
25667;SDS011;18003;-33.830;151.202;2024-02-23T10:49:27;1.30;;;1.02;;
25667;SDS011;18003;-33.830;151.202;2024-02-23T10:51:56;1.85;;;1.20;;
25667;SDS011;18003;-33.830;151.202;2024-02-23T10:54:25;1.22;;;0.90;;
25667;SDS011;18003;-33.830;151.202;2024-02-23T10:56:55;1.55;;;1.10;;
25667;SDS011;18003;-33.830;151.202;2024-02-23T10:59:24;1.72;;;1.17;;
25667;SDS011;18003;-33.830;151.202;2024-02-23T11:01:53;1.82;;;1.15;;
25667;SDS011;18003;-33.830;151.202;2024-02-23T11:04:24;1.10;;;1.00;;
25667;SDS011;18003;-33.830;151.202;2024-02-23T11:06:57;1.32;;;1.00;;
25667;SDS011;18003;-33.830;151.202;2024-02-23T11:09:26;1.55;;;1.12;;
25667;SDS011;18003;-33.830;151.202;2024-02-23T11:11:55;1.62;;;1.00;;
25667;SDS011;18003;-33.830;151.202;2024-02-23T11:14:30;1.55;;;1.00;;
25667;SDS011;18003;-33.830;151.202;2024-02-23T11:16:59;1.70;;;1.15;;
25667;SDS011;18003;-33.830;151.202;2024-02-23T11:22:04;1.52;;;1.25;;
25667;SDS011;18003;-33.830;151.202;2024-02-23T11:24:34;1.47;;;1.20;;
25667;SDS011;18003;-33.830;151.202;2024-02-23T11:27:03;2.55;;;1.30;;
25667;SDS011;18003;-33.830;151.202;2024-02-23T11:29:33;1.45;;;1.07;;
25667;SDS011;18003;-33.830;151.202;2024-02-23T11:32:11;1.53;;;1.13;;
25667;SDS011;18003;-33.830;151.202;2024-02-23T11:34:34;2.50;;;1.27;;
25667;SDS011;18003;-33.830;151.202;2024-02-23T11:37:07;2.55;;;1.35;;
25667;SDS011;18003;-33.830;151.202;2024-02-23T11:39:33;1.87;;;1.30;;
25667;SDS011;18003;-33.830;151.202;2024-02-23T11:42:03;1.60;;;1.25;;
25667;SDS011;18003;-33.830;151.202;2024-02-23T11:44:32;2.40;;;1.37;;
25667;SDS011;18003;-33.830;151.202;2024-02-23T11:47:01;1.70;;;1.12;;
25667;SDS011;18003;-33.830;151.202;2024-02-23T11:49:30;1.75;;;1.20;;
25667;SDS011;18003;-33.830;151.202;2024-02-23T11:52:00;2.22;;;1.15;;
25667;SDS011;18003;-33.830;151.202;2024-02-23T11:54:29;1.57;;;1.10;;
25667;SDS011;18003;-33.830;151.202;2024-02-23T11:56:58;1.80;;;1.20;;
25667;SDS011;18003;-33.830;151.202;2024-02-23T11:59:27;1.80;;;1.30;;
25667;SDS011;18003;-33.830;151.202;2024-02-23T12:01:56;2.50;;;1.32;;
25667;SDS011;18003;-33.830;151.202;2024-02-23T12:04:26;2.80;;;1.60;;
25667;SDS011;18003;-33.830;151.202;2024-02-23T12:06:56;3.67;;;1.35;;
25667;SDS011;18003;-33.830;151.202;2024-02-23T12:09:25;1.98;;;1.12;;
25667;SDS011;18003;-33.830;151.202;2024-02-23T12:11:54;2.12;;;1.30;;
25667;SDS011;18003;-33.830;151.202;2024-02-23T12:14:23;2.85;;;1.45;;
25667;SDS011;18003;-33.830;151.202;2024-02-23T12:16:52;3.27;;;1.42;;
25667;SDS011;18003;-33.830;151.202;2024-02-23T12:19:22;4.50;;;1.75;;
25667;SDS011;18003;-33.830;151.202;2024-02-23T12:21:51;2.72;;;1.30;;
25667;SDS011;18003;-33.830;151.202;2024-02-23T12:24:20;2.50;;;1.30;;
25667;SDS011;18003;-33.830;151.202;2024-02-23T12:26:53;2.45;;;1.52;;
25667;SDS011;18003;-33.830;151.202;2024-02-23T12:29:20;3.37;;;1.45;;
25667;SDS011;18003;-33.830;151.202;2024-02-23T12:31:49;2.60;;;1.35;;
25667;SDS011;18003;-33.830;151.202;2024-02-23T12:34:19;2.35;;;1.30;;
25667;SDS011;18003;-33.830;151.202;2024-02-23T12:36:48;3.08;;;1.40;;
25667;SDS011;18003;-33.830;151.202;2024-02-23T12:39:17;1.60;;;1.10;;
25667;SDS011;18003;-33.830;151.202;2024-02-23T12:41:46;2.52;;;1.30;;
25667;SDS011;18003;-33.830;151.202;2024-02-23T12:44:15;3.02;;;1.37;;
25667;SDS011;18003;-33.830;151.202;2024-02-23T12:46:44;3.95;;;1.27;;
25667;SDS011;18003;-33.830;151.202;2024-02-23T12:49:13;2.25;;;1.40;;
25667;SDS011;18003;-33.830;151.202;2024-02-23T12:51:43;2.08;;;1.40;;
25667;SDS011;18003;-33.830;151.202;2024-02-23T12:54:12;1.77;;;1.00;;
25667;SDS011;18003;-33.830;151.202;2024-02-23T12:56:41;3.10;;;1.32;;
25667;SDS011;18003;-33.830;151.202;2024-02-23T12:59:10;3.12;;;1.30;;
25667;SDS011;18003;-33.830;151.202;2024-02-23T13:01:39;2.95;;;1.40;;
25667;SDS011;18003;-33.830;151.202;2024-02-23T13:04:08;2.33;;;1.40;;
25667;SDS011;18003;-33.830;151.202;2024-02-23T13:06:38;2.47;;;1.20;;
25667;SDS011;18003;-33.830;151.202;2024-02-23T13:09:07;2.25;;;1.52;;
25667;SDS011;18003;-33.830;151.202;2024-02-23T13:11:36;1.90;;;1.35;;
25667;SDS011;18003;-33.830;151.202;2024-02-23T13:14:06;2.83;;;1.30;;
25667;SDS011;18003;-33.830;151.202;2024-02-23T13:16:36;3.35;;;1.50;;
25667;SDS011;18003;-33.830;151.202;2024-02-23T13:19:05;2.25;;;1.40;;
25667;SDS011;18003;-33.830;151.202;2024-02-23T13:21:35;3.70;;;1.67;;
25667;SDS011;18003;-33.830;151.202;2024-02-23T13:24:05;2.90;;;1.40;;
25667;SDS011;18003;-33.830;151.202;2024-02-23T13:26:34;3.37;;;1.60;;
25667;SDS011;18003;-33.830;151.202;2024-02-23T13:29:02;2.45;;;1.30;;
25667;SDS011;18003;-33.830;151.202;2024-02-23T13:31:31;2.27;;;1.32;;
25667;SDS011;18003;-33.830;151.202;2024-02-23T13:34:00;2.87;;;1.45;;
25667;SDS011;18003;-33.830;151.202;2024-02-23T13:36:30;3.02;;;1.45;;
25667;SDS011;18003;-33.830;151.202;2024-02-23T13:38:59;2.35;;;1.50;;
25667;SDS011;18003;-33.830;151.202;2024-02-23T13:41:28;2.95;;;1.65;;
25667;SDS011;18003;-33.830;151.202;2024-02-23T13:43:57;3.72;;;1.80;;
25667;SDS011;18003;-33.830;151.202;2024-02-23T13:46:26;2.12;;;1.42;;
25667;SDS011;18003;-33.830;151.202;2024-02-23T13:49:04;3.00;;;1.60;;
25667;SDS011;18003;-33.830;151.202;2024-02-23T13:51:34;3.17;;;1.80;;
25667;SDS011;18003;-33.830;151.202;2024-02-23T13:54:03;1.95;;;1.30;;
25667;SDS011;18003;-33.830;151.202;2024-02-23T13:56:32;3.10;;;1.80;;
25667;SDS011;18003;-33.830;151.202;2024-02-23T13:59:01;2.67;;;1.50;;
25667;SDS011;18003;-33.830;151.202;2024-02-23T14:01:31;2.02;;;1.25;;
25667;SDS011;18003;-33.830;151.202;2024-02-23T14:04:00;3.67;;;1.60;;
25667;SDS011;18003;-33.830;151.202;2024-02-23T14:06:30;2.65;;;1.60;;
25667;SDS011;18003;-33.830;151.202;2024-02-23T14:08:59;3.17;;;1.67;;
25667;SDS011;18003;-33.830;151.202;2024-02-23T14:11:28;3.20;;;1.65;;
25667;SDS011;18003;-33.830;151.202;2024-02-23T14:13:57;2.08;;;1.30;;
25667;SDS011;18003;-33.830;151.202;2024-02-23T14:16:26;2.55;;;1.40;;
25667;SDS011;18003;-33.830;151.202;2024-02-23T14:18:55;3.45;;;1.77;;
25667;SDS011;18003;-33.830;151.202;2024-02-23T14:21:25;2.85;;;1.90;;
25667;SDS011;18003;-33.830;151.202;2024-02-23T14:23:54;3.77;;;1.50;;
25667;SDS011;18003;-33.830;151.202;2024-02-23T14:26:23;4.03;;;1.90;;
25667;SDS011;18003;-33.830;151.202;2024-02-23T14:28:52;2.72;;;1.67;;
25667;SDS011;18003;-33.830;151.202;2024-02-23T14:31:21;2.87;;;2.00;;
25667;SDS011;18003;-33.830;151.202;2024-02-23T14:33:50;3.27;;;1.85;;
25667;SDS011;18003;-33.830;151.202;2024-02-23T14:36:19;2.95;;;1.70;;
25667;SDS011;18003;-33.830;151.202;2024-02-23T14:38:50;3.95;;;1.70;;
25667;SDS011;18003;-33.830;151.202;2024-02-23T14:41:19;3.83;;;2.17;;
25667;SDS011;18003;-33.830;151.202;2024-02-23T14:43:49;3.02;;;1.57;;
25667;SDS011;18003;-33.830;151.202;2024-02-23T14:46:17;3.20;;;2.00;;
25667;SDS011;18003;-33.830;151.202;2024-02-23T14:48:46;3.30;;;1.90;;
25667;SDS011;18003;-33.830;151.202;2024-02-23T14:51:15;2.95;;;1.60;;
25667;SDS011;18003;-33.830;151.202;2024-02-23T14:53:44;3.22;;;1.70;;